createdAt,value
2023-04-10T00:00:44.222Z,1017.48
2023-04-10T00:01:44.290Z,1017.50
2023-04-10T00:02:44.294Z,1017.51
2023-04-10T00:03:44.304Z,1017.50
2023-04-10T00:04:44.329Z,1017.53
2023-04-10T00:05:44.199Z,1017.49
2023-04-10T00:06:44.196Z,1017.49
2023-04-10T00:07:44.204Z,1017.52
2023-04-10T00:08:44.181Z,1017.50
2023-04-10T00:09:44.192Z,1017.48
2023-04-10T00:10:44.171Z,1017.48
2023-04-10T00:11:44.165Z,1017.44
2023-04-10T00:12:44.161Z,1017.43
2023-04-10T00:13:44.155Z,1017.38
2023-04-10T00:14:44.153Z,1017.37
2023-04-10T00:15:44.145Z,1017.38
2023-04-10T00:16:44.197Z,1017.33
2023-04-10T00:17:44.220Z,1017.30
2023-04-10T00:18:44.135Z,1017.32
2023-04-10T00:19:44.128Z,1017.32
2023-04-10T00:20:44.121Z,1017.35
2023-04-10T00:21:44.126Z,1017.33
2023-04-10T00:22:44.129Z,1017.32
2023-04-10T00:23:44.111Z,1017.33
2023-04-10T00:24:44.102Z,1017.33
2023-04-10T00:25:44.122Z,1017.34
2023-04-10T00:26:44.093Z,1017.34
2023-04-10T00:27:44.087Z,1017.33
2023-04-10T00:28:44.082Z,1017.29
2023-04-10T00:29:44.079Z,1017.26
2023-04-10T00:30:44.081Z,1017.27
2023-04-10T00:31:44.110Z,1017.27
2023-04-10T00:32:44.117Z,1017.23
2023-04-10T00:33:44.088Z,1017.26
2023-04-10T00:34:44.054Z,1017.23
2023-04-10T00:35:44.068Z,1017.18
2023-04-10T00:36:44.047Z,1017.21
2023-04-10T00:37:44.043Z,1017.16
2023-04-10T00:38:44.035Z,1017.14
2023-04-10T00:39:44.030Z,1017.16
2023-04-10T00:40:44.024Z,1017.12
2023-04-10T00:41:44.039Z,1017.07
2023-04-10T00:42:44.030Z,1017.12
2023-04-10T00:43:44.013Z,1017.09
2023-04-10T00:44:44.011Z,1017.10
2023-04-10T00:45:44.042Z,1017.09
2023-04-10T00:46:43.999Z,1017.06
2023-04-10T00:47:44.077Z,1017.03
2023-04-10T00:48:43.986Z,1017.06
2023-04-10T00:49:43.984Z,1017.00
2023-04-10T00:50:43.974Z,1017.03
2023-04-10T00:51:43.970Z,1017.00
2023-04-10T00:52:43.965Z,1016.98
2023-04-10T00:53:43.958Z,1017.00
2023-04-10T00:54:43.952Z,1017.00
2023-04-10T00:55:43.954Z,1016.98
2023-04-10T00:56:43.948Z,1017.01
2023-04-10T00:57:43.965Z,1017.00
2023-04-10T00:58:43.933Z,1017.00
2023-04-10T00:59:43.930Z,1017.00
2023-04-10T01:00:43.922Z,1016.98
2023-04-10T01:01:44.048Z,1017.00
2023-04-10T01:02:44.064Z,1016.95
2023-04-10T01:03:44.017Z,1016.93
2023-04-10T01:04:43.902Z,1016.91
2023-04-10T01:05:44.097Z,1016.94
2023-04-10T01:06:43.891Z,1016.90
2023-04-10T01:07:43.896Z,1016.88
2023-04-10T01:08:43.880Z,1016.95
2023-04-10T01:09:43.875Z,1016.94
2023-04-10T01:10:43.873Z,1016.96
2023-04-10T01:11:43.874Z,1016.94
2023-04-10T01:12:43.866Z,1016.92
2023-04-10T01:13:43.882Z,1016.96
2023-04-10T01:14:43.853Z,1016.92
2023-04-10T01:15:43.848Z,1016.90
2023-04-10T01:16:43.869Z,1016.90
2023-04-10T01:17:43.907Z,1016.85
2023-04-10T01:18:43.833Z,1016.83
2023-04-10T01:19:43.826Z,1016.84
2023-04-10T01:20:43.827Z,1016.80
2023-04-10T01:21:43.820Z,1016.74
2023-04-10T01:22:43.812Z,1016.74
2023-04-10T01:23:43.804Z,1016.77
2023-04-10T01:24:43.800Z,1016.69
2023-04-10T01:25:43.795Z,1016.68
2023-04-10T01:26:43.791Z,1016.71
2023-04-10T01:27:43.780Z,1016.65
2023-04-10T01:28:43.776Z,1016.67
2023-04-10T01:29:44.721Z,1016.66
2023-04-10T01:30:43.820Z,1016.66
2023-04-10T01:31:43.765Z,1016.65
2023-04-10T01:32:43.780Z,1016.61
2023-04-10T01:33:43.751Z,1016.64
2023-04-10T01:34:43.778Z,1016.58
2023-04-10T01:35:43.785Z,1016.60
2023-04-10T01:36:43.762Z,1016.59
2023-04-10T01:37:43.760Z,1016.58
2023-04-10T01:38:43.727Z,1016.58
2023-04-10T01:39:43.730Z,1016.58
2023-04-10T01:40:43.716Z,1016.59
2023-04-10T01:41:43.711Z,1016.59
2023-04-10T01:42:44.866Z,1016.58
2023-04-10T01:43:43.708Z,1016.56
2023-04-10T01:44:43.696Z,1016.55
2023-04-10T01:45:43.711Z,1016.53
2023-04-10T01:46:43.786Z,1016.50
2023-04-10T01:47:43.700Z,1016.50
2023-04-10T01:48:43.675Z,1016.51
2023-04-10T01:49:43.673Z,1016.44
2023-04-10T01:50:43.665Z,1016.40
2023-04-10T01:51:43.661Z,1016.43
2023-04-10T01:52:43.663Z,1016.39
2023-04-10T01:53:43.651Z,1016.41
2023-04-10T01:54:43.646Z,1016.41
2023-04-10T01:55:43.658Z,1016.36
2023-04-10T01:56:43.639Z,1016.41
2023-04-10T01:57:43.628Z,1016.33
2023-04-10T01:58:43.626Z,1016.32
2023-04-10T01:59:43.630Z,1016.26
2023-04-10T02:00:43.657Z,1016.30
2023-04-10T02:01:43.720Z,1016.28
2023-04-10T02:02:43.761Z,1016.26
2023-04-10T02:03:43.777Z,1016.28
2023-04-10T02:04:43.645Z,1016.28
2023-04-10T02:05:43.591Z,1016.30
2023-04-10T02:06:43.584Z,1016.29
2023-04-10T02:07:43.577Z,1016.32
2023-04-10T02:08:43.573Z,1016.28
2023-04-10T02:09:43.568Z,1016.26
2023-04-10T02:10:43.561Z,1016.26
2023-04-10T02:11:43.559Z,1016.26
2023-04-10T02:12:43.554Z,1016.24
2023-04-10T02:13:43.548Z,1016.24
2023-04-10T02:14:43.547Z,1016.22
2023-04-10T02:15:43.550Z,1016.26
2023-04-10T02:16:43.530Z,1016.25
2023-04-10T02:17:43.590Z,1016.27
2023-04-10T02:18:43.527Z,1016.25
2023-04-10T02:19:43.514Z,1016.26
2023-04-10T02:20:43.518Z,1016.21
2023-04-10T02:21:43.506Z,1016.18
2023-04-10T02:22:43.506Z,1016.20
2023-04-10T02:23:43.495Z,1016.16
2023-04-10T02:24:43.487Z,1016.16
2023-04-10T02:25:43.487Z,1016.15
2023-04-10T02:26:43.476Z,1016.15
2023-04-10T02:27:43.473Z,1016.12
2023-04-10T02:28:43.468Z,1016.13
2023-04-10T02:29:43.470Z,1016.17
2023-04-10T02:30:43.455Z,1016.17
2023-04-10T02:31:43.485Z,1016.15
2023-04-10T02:32:43.489Z,1016.18
2023-04-10T02:33:43.480Z,1016.19
2023-04-10T02:34:43.452Z,1016.17
2023-04-10T02:35:43.470Z,1016.22
2023-04-10T02:36:43.443Z,1016.20
2023-04-10T02:37:43.420Z,1016.21
2023-04-10T02:38:43.426Z,1016.24
2023-04-10T02:39:43.410Z,1016.20
2023-04-10T02:40:43.409Z,1016.25
2023-04-10T02:41:43.410Z,1016.21
2023-04-10T02:42:43.395Z,1016.23
2023-04-10T02:43:43.393Z,1016.19
2023-04-10T02:44:43.381Z,1016.20
2023-04-10T02:45:43.386Z,1016.15
2023-04-10T02:46:43.414Z,1016.15
2023-04-10T02:47:43.382Z,1016.13
2023-04-10T02:48:43.364Z,1016.14
2023-04-10T02:49:43.588Z,1016.13
2023-04-10T02:50:43.359Z,1016.14
2023-04-10T02:51:43.360Z,1016.17
2023-04-10T02:52:43.340Z,1016.18
2023-04-10T02:53:43.348Z,1016.14
2023-04-10T02:54:43.337Z,1016.15
2023-04-10T02:55:43.330Z,1016.16
2023-04-10T02:56:43.331Z,1016.17
2023-04-10T02:57:43.319Z,1016.14
2023-04-10T02:58:43.316Z,1016.14
2023-04-10T02:59:43.316Z,1016.13
2023-04-10T03:00:43.311Z,1016.07
2023-04-10T03:01:43.400Z,1016.06
2023-04-10T03:02:43.449Z,1016.06
2023-04-10T03:03:43.382Z,1016.07
2023-04-10T03:04:43.341Z,1016.05
2023-04-10T03:05:43.776Z,1016.02
2023-04-10T03:06:43.265Z,1016.03
2023-04-10T03:07:43.260Z,1016.03
2023-04-10T03:08:43.257Z,1016.03
2023-04-10T03:09:43.277Z,1016.01
2023-04-10T03:10:43.246Z,1015.99
2023-04-10T03:11:43.242Z,1015.99
2023-04-10T03:12:43.235Z,1015.96
2023-04-10T03:13:43.227Z,1015.94
2023-04-10T03:14:43.222Z,1015.95
2023-04-10T03:15:43.248Z,1015.95
2023-04-10T03:16:43.212Z,1015.94
2023-04-10T03:17:43.230Z,1015.93
2023-04-10T03:18:43.204Z,1015.92
2023-04-10T03:19:43.203Z,1015.87
2023-04-10T03:20:45.038Z,1015.85
2023-04-10T03:21:43.206Z,1015.79
2023-04-10T03:22:43.177Z,1015.80
2023-04-10T03:23:43.184Z,1015.77
2023-04-10T03:24:43.170Z,1015.75
2023-04-10T03:25:43.171Z,1015.73
2023-04-10T03:26:43.156Z,1015.73
2023-04-10T03:27:43.154Z,1015.68
2023-04-10T03:28:43.166Z,1015.70
2023-04-10T03:29:43.144Z,1015.71
2023-04-10T03:30:43.140Z,1015.71
2023-04-10T03:31:43.176Z,1015.67
2023-04-10T03:32:43.128Z,1015.64
2023-04-10T03:33:43.163Z,1015.64
2023-04-10T03:34:43.112Z,1015.61
2023-04-10T03:35:43.135Z,1015.63
2023-04-10T03:36:43.101Z,1015.58
2023-04-10T03:37:43.131Z,1015.57
2023-04-10T03:38:43.092Z,1015.56
2023-04-10T03:39:43.091Z,1015.54
2023-04-10T03:40:43.078Z,1015.58
2023-04-10T03:41:43.077Z,1015.53
2023-04-10T03:42:43.222Z,1015.54
2023-04-10T03:43:43.067Z,1015.58
2023-04-10T03:44:43.063Z,1015.54
2023-04-10T03:45:43.062Z,1015.57
2023-04-10T03:46:43.079Z,1015.55
2023-04-10T03:47:43.121Z,1015.53
2023-04-10T03:48:43.036Z,1015.51
2023-04-10T03:49:43.030Z,1015.48
2023-04-10T03:50:43.023Z,1015.50
2023-04-10T03:51:43.029Z,1015.48
2023-04-10T03:52:43.015Z,1015.47
2023-04-10T03:53:43.032Z,1015.51
2023-04-10T03:54:43.010Z,1015.48
2023-04-10T03:55:43.001Z,1015.53
2023-04-10T03:56:42.993Z,1015.52
2023-04-10T03:57:42.991Z,1015.48
2023-04-10T03:58:42.979Z,1015.43
2023-04-10T03:59:42.991Z,1015.43
2023-04-10T04:00:42.979Z,1015.39
2023-04-10T04:01:43.068Z,1015.37
2023-04-10T04:02:43.108Z,1015.37
2023-04-10T04:03:43.110Z,1015.38
2023-04-10T04:04:43.091Z,1015.38
2023-04-10T04:05:42.941Z,1015.36
2023-04-10T04:06:42.939Z,1015.37
2023-04-10T04:07:42.928Z,1015.36
2023-04-10T04:08:42.926Z,1015.39
2023-04-10T04:09:42.938Z,1015.40
2023-04-10T04:10:43.315Z,1015.36
2023-04-10T04:11:42.909Z,1015.38
2023-04-10T04:12:42.919Z,1015.39
2023-04-10T04:13:42.897Z,1015.35
2023-04-10T04:14:42.895Z,1015.35
2023-04-10T04:15:42.895Z,1015.37
2023-04-10T04:16:42.971Z,1015.37
2023-04-10T04:17:42.919Z,1015.38
2023-04-10T04:18:42.870Z,1015.35
2023-04-10T04:19:42.865Z,1015.38
2023-04-10T04:20:42.867Z,1015.37
2023-04-10T04:21:42.857Z,1015.37
2023-04-10T04:22:42.847Z,1015.39
2023-04-10T04:23:42.848Z,1015.38
2023-04-10T04:24:42.839Z,1015.40
2023-04-10T04:25:42.859Z,1015.39
2023-04-10T04:26:42.827Z,1015.40
2023-04-10T04:27:42.824Z,1015.37
2023-04-10T04:28:42.816Z,1015.37
2023-04-10T04:29:42.827Z,1015.35
2023-04-10T04:30:42.808Z,1015.39
2023-04-10T04:31:42.850Z,1015.34
2023-04-10T04:32:42.801Z,1015.33
2023-04-10T04:33:42.802Z,1015.32
2023-04-10T04:34:42.789Z,1015.30
2023-04-10T04:35:42.809Z,1015.32
2023-04-10T04:36:42.798Z,1015.28
2023-04-10T04:37:42.781Z,1015.28
2023-04-10T04:38:42.769Z,1015.26
2023-04-10T04:39:42.768Z,1015.22
2023-04-10T04:40:42.772Z,1015.27
2023-04-10T04:41:42.773Z,1015.24
2023-04-10T04:42:42.751Z,1015.22
2023-04-10T04:43:42.747Z,1015.21
2023-04-10T04:44:42.756Z,1015.21
2023-04-10T04:45:42.747Z,1015.19
2023-04-10T04:46:44.528Z,1015.17
2023-04-10T04:47:42.742Z,1015.20
2023-04-10T04:48:42.743Z,1015.21
2023-04-10T04:49:42.717Z,1015.20
2023-04-10T04:50:42.713Z,1015.20
2023-04-10T04:51:42.704Z,1015.18
2023-04-10T04:52:42.699Z,1015.17
2023-04-10T04:53:42.699Z,1015.18
2023-04-10T04:54:42.689Z,1015.16
2023-04-10T04:55:42.680Z,1015.17
2023-04-10T04:56:42.677Z,1015.16
2023-04-10T04:57:42.690Z,1015.17
2023-04-10T04:58:42.666Z,1015.23
2023-04-10T04:59:42.663Z,1015.21
2023-04-10T05:00:42.655Z,1015.24
2023-04-10T05:01:42.698Z,1015.21
2023-04-10T05:02:42.806Z,1015.21
2023-04-10T05:03:42.766Z,1015.21
2023-04-10T05:04:42.640Z,1015.28
2023-04-10T05:05:42.626Z,1015.22
2023-04-10T05:06:42.625Z,1015.23
2023-04-10T05:07:42.617Z,1015.22
2023-04-10T05:08:42.612Z,1015.20
2023-04-10T05:09:42.604Z,1015.17
2023-04-10T05:10:42.601Z,1015.18
2023-04-10T05:11:42.594Z,1015.15
2023-04-10T05:12:42.593Z,1015.15
2023-04-10T05:13:42.605Z,1015.17
2023-04-10T05:14:42.578Z,1015.17
2023-04-10T05:15:43.014Z,1015.14
2023-04-10T05:16:42.572Z,1015.19
2023-04-10T05:17:42.629Z,1015.18
2023-04-10T05:18:42.584Z,1015.19
2023-04-10T05:19:42.554Z,1015.18
2023-04-10T05:20:42.547Z,1015.20
2023-04-10T05:21:42.558Z,1015.23
2023-04-10T05:22:42.539Z,1015.23
2023-04-10T05:23:42.532Z,1015.23
2023-04-10T05:24:42.530Z,1015.25
2023-04-10T05:25:42.519Z,1015.24
2023-04-10T05:26:42.525Z,1015.24
2023-04-10T05:27:42.511Z,1015.26
2023-04-10T05:28:42.506Z,1015.30
2023-04-10T05:29:42.526Z,1015.29
2023-04-10T05:30:42.567Z,1015.30
2023-04-10T05:31:42.496Z,1015.29
2023-04-10T05:32:42.541Z,1015.29
2023-04-10T05:33:42.478Z,1015.30
2023-04-10T05:34:42.476Z,1015.34
2023-04-10T05:35:42.500Z,1015.33
2023-04-10T05:36:42.466Z,1015.29
2023-04-10T05:37:42.462Z,1015.32
2023-04-10T05:38:42.458Z,1015.33
2023-04-10T05:39:42.455Z,1015.34
2023-04-10T05:40:42.448Z,1015.35
2023-04-10T05:41:42.446Z,1015.37
2023-04-10T05:42:42.443Z,1015.34
2023-04-10T05:43:42.446Z,1015.32
2023-04-10T05:44:42.434Z,1015.35
2023-04-10T05:45:42.445Z,1015.32
2023-04-10T05:46:42.464Z,1015.34
2023-04-10T05:47:42.471Z,1015.31
2023-04-10T05:48:42.417Z,1015.31
2023-04-10T05:49:42.407Z,1015.32
2023-04-10T05:50:42.406Z,1015.31
2023-04-10T05:51:42.395Z,1015.31
2023-04-10T05:52:42.391Z,1015.29
2023-04-10T05:53:42.383Z,1015.28
2023-04-10T05:54:42.380Z,1015.28
2023-04-10T05:55:42.381Z,1015.31
2023-04-10T05:56:42.369Z,1015.28
2023-04-10T05:57:42.366Z,1015.26
2023-04-10T05:58:42.370Z,1015.18
2023-04-10T05:59:42.359Z,1015.25
2023-04-10T06:00:42.353Z,1015.22
2023-04-10T06:01:42.404Z,1015.23
2023-04-10T06:02:42.467Z,1015.25
2023-04-10T06:03:42.528Z,1015.26
2023-04-10T06:04:42.441Z,1015.22
2023-04-10T06:05:42.323Z,1015.22
2023-04-10T06:06:42.329Z,1015.26
2023-04-10T06:07:42.330Z,1015.28
2023-04-10T06:08:42.315Z,1015.25
2023-04-10T06:09:42.299Z,1015.25
2023-04-10T06:10:42.301Z,1015.23
2023-04-10T06:11:42.293Z,1015.21
2023-04-10T06:12:42.286Z,1015.22
2023-04-10T06:13:42.280Z,1015.24
2023-04-10T06:14:42.276Z,1015.21
2023-04-10T06:15:42.547Z,1015.22
2023-04-10T06:16:42.274Z,1015.19
2023-04-10T06:17:42.308Z,1015.22
2023-04-10T06:18:42.259Z,1015.19
2023-04-10T06:19:42.256Z,1015.20
2023-04-10T06:20:42.265Z,1015.19
2023-04-10T06:21:42.244Z,1015.15
2023-04-10T06:22:42.244Z,1015.16
2023-04-10T06:23:42.231Z,1015.14
2023-04-10T06:24:42.229Z,1015.07
2023-04-10T06:25:42.251Z,1015.09
2023-04-10T06:26:42.219Z,1015.10
2023-04-10T06:27:42.212Z,1015.06
2023-04-10T06:28:42.216Z,1015.08
2023-04-10T06:29:42.202Z,1015.15
2023-04-10T06:30:42.214Z,1015.07
2023-04-10T06:31:42.237Z,1015.05
2023-04-10T06:32:42.227Z,1015.04
2023-04-10T06:33:42.203Z,1015.09
2023-04-10T06:34:42.185Z,1015.14
2023-04-10T06:35:42.204Z,1015.06
2023-04-10T06:36:42.180Z,1015.11
2023-04-10T06:37:42.181Z,1015.12
2023-04-10T06:38:42.163Z,1015.09
2023-04-10T06:39:42.162Z,1015.12
2023-04-10T06:40:42.162Z,1015.08
2023-04-10T06:41:42.149Z,1015.12
2023-04-10T06:42:42.150Z,1015.17
2023-04-10T06:43:42.138Z,1015.20
2023-04-10T06:44:42.133Z,1015.21
2023-04-10T06:45:42.123Z,1015.19
2023-04-10T06:46:42.195Z,1015.21
2023-04-10T06:47:42.149Z,1015.23
2023-04-10T06:48:42.118Z,1015.24
2023-04-10T06:49:42.132Z,1015.24
2023-04-10T06:50:42.104Z,1015.24
2023-04-10T06:51:42.097Z,1015.18
2023-04-10T06:52:42.102Z,1015.20
2023-04-10T06:53:42.090Z,1015.21
2023-04-10T06:54:42.090Z,1015.21
2023-04-10T06:55:42.077Z,1015.18
2023-04-10T06:56:42.076Z,1015.20
2023-04-10T06:57:42.068Z,1015.15
2023-04-10T06:58:42.272Z,1015.16
2023-04-10T06:59:42.061Z,1015.19
2023-04-10T07:00:42.056Z,1015.19
2023-04-10T07:01:42.084Z,1015.20
2023-04-10T07:02:42.088Z,1015.17
2023-04-10T07:03:42.088Z,1015.17
2023-04-10T07:04:42.041Z,1015.16
2023-04-10T07:05:42.436Z,1015.11
2023-04-10T07:06:42.035Z,1015.13
2023-04-10T07:07:42.029Z,1015.12
2023-04-10T07:08:42.025Z,1015.07
2023-04-10T07:09:42.023Z,1015.07
2023-04-10T07:10:42.021Z,1015.08
2023-04-10T07:11:42.022Z,1015.06
2023-04-10T07:12:42.007Z,1015.11
2023-04-10T07:13:41.996Z,1015.05
2023-04-10T07:14:41.998Z,1015.09
2023-04-10T07:15:41.993Z,1015.06
2023-04-10T07:16:42.021Z,1015.07
2023-04-10T07:17:41.997Z,1015.02
2023-04-10T07:18:41.991Z,1014.91
2023-04-10T07:19:41.978Z,1014.97
2023-04-10T07:20:42.431Z,1015.02
2023-04-10T07:21:41.985Z,1014.90
2023-04-10T07:22:41.965Z,1014.91
2023-04-10T07:23:41.955Z,1014.96
2023-04-10T07:24:41.951Z,1014.83
2023-04-10T07:25:41.947Z,1014.85
2023-04-10T07:26:41.943Z,1014.91
2023-04-10T07:27:41.948Z,1014.83
2023-04-10T07:28:41.937Z,1014.85
2023-04-10T07:29:41.941Z,1014.87
2023-04-10T07:30:41.926Z,1014.91
2023-04-10T07:31:41.968Z,1014.94
2023-04-10T07:32:42.148Z,1014.86
2023-04-10T07:33:41.938Z,1014.85
2023-04-10T07:34:41.910Z,1014.83
2023-04-10T07:35:41.943Z,1014.90
2023-04-10T07:36:41.901Z,1014.90
2023-04-10T07:37:41.922Z,1014.79
2023-04-10T07:38:41.902Z,1014.77
2023-04-10T07:39:41.887Z,1014.87
2023-04-10T07:40:41.886Z,1014.79
2023-04-10T07:41:41.877Z,1014.81
2023-04-10T07:42:41.876Z,1014.78
2023-04-10T07:43:41.871Z,1014.81
2023-04-10T07:44:41.875Z,1014.87
2023-04-10T07:45:41.911Z,1014.69
2023-04-10T07:46:41.873Z,1014.68
2023-04-10T07:47:41.877Z,1014.75
2023-04-10T07:48:41.855Z,1014.74
2023-04-10T07:49:41.859Z,1014.66
2023-04-10T07:50:41.846Z,1014.65
2023-04-10T07:51:41.837Z,1014.63
2023-04-10T07:52:41.847Z,1014.60
2023-04-10T07:53:41.849Z,1014.66
2023-04-10T07:54:41.833Z,1014.58
2023-04-10T07:55:41.823Z,1014.59
2023-04-10T07:56:41.824Z,1014.57
2023-04-10T07:57:42.342Z,1014.54
2023-04-10T07:58:41.811Z,1014.55
2023-04-10T07:59:41.807Z,1014.56
2023-04-10T08:00:41.803Z,1014.55
2023-04-10T08:01:41.859Z,1014.51
2023-04-10T08:02:41.880Z,1014.53
2023-04-10T08:03:41.974Z,1014.53
2023-04-10T08:04:41.927Z,1014.57
2023-04-10T08:05:41.789Z,1014.62
2023-04-10T08:06:41.785Z,1014.62
2023-04-10T08:07:41.784Z,1014.66
2023-04-10T08:08:41.785Z,1014.67
2023-04-10T08:09:41.788Z,1014.71
2023-04-10T08:10:41.767Z,1014.62
2023-04-10T08:11:41.765Z,1014.59
2023-04-10T08:12:41.794Z,1014.60
2023-04-10T08:13:41.755Z,1014.59
2023-04-10T08:14:41.756Z,1014.59
2023-04-10T08:15:41.752Z,1014.60
2023-04-10T08:16:41.760Z,1014.58
2023-04-10T08:17:41.796Z,1014.53
2023-04-10T08:18:41.750Z,1014.55
2023-04-10T08:19:41.751Z,1014.52
2023-04-10T08:20:41.740Z,1014.53
2023-04-10T08:21:41.734Z,1014.59
2023-04-10T08:22:41.733Z,1014.47
2023-04-10T08:23:41.727Z,1014.57
2023-04-10T08:24:41.727Z,1014.49
2023-04-10T08:25:41.893Z,1014.54
2023-04-10T08:26:41.723Z,1014.50
2023-04-10T08:27:41.723Z,1014.55
2023-04-10T08:28:41.718Z,1014.48
2023-04-10T08:29:41.711Z,1014.47
2023-04-10T08:30:41.751Z,1014.54
2023-04-10T08:31:41.708Z,1014.35
2023-04-10T08:32:41.738Z,1014.41
2023-04-10T08:33:41.711Z,1014.37
2023-04-10T08:34:41.710Z,1014.42
2023-04-10T08:35:41.775Z,1014.43
2023-04-10T08:36:41.700Z,1014.33
2023-04-10T08:37:41.709Z,1014.32
2023-04-10T08:38:41.703Z,1014.21
2023-04-10T08:39:41.692Z,1014.27
2023-04-10T08:40:41.691Z,1014.14
2023-04-10T08:41:41.726Z,1014.18
2023-04-10T08:42:41.688Z,1014.11
2023-04-10T08:43:41.682Z,1014.14
2023-04-10T08:44:41.698Z,1014.14
2023-04-10T08:45:41.750Z,1014.19
2023-04-10T08:46:41.756Z,1014.05
2023-04-10T08:47:41.760Z,1014.05
2023-04-10T08:48:41.672Z,1013.99
2023-04-10T08:49:41.670Z,1014.09
2023-04-10T08:50:41.664Z,1013.91
2023-04-10T08:51:41.665Z,1014.00
2023-04-10T08:52:41.657Z,1013.92
2023-04-10T08:53:41.657Z,1013.92
2023-04-10T08:54:41.659Z,1013.96
2023-04-10T08:55:41.662Z,1013.86
2023-04-10T08:56:41.651Z,1013.98
2023-04-10T08:57:45.329Z,1013.81
2023-04-10T08:58:41.640Z,1013.78
2023-04-10T08:59:41.641Z,1013.73
2023-04-10T09:00:41.653Z,1013.93
2023-04-10T09:01:41.717Z,1013.85
2023-04-10T09:02:42.775Z,1013.77
2023-04-10T09:03:41.762Z,1013.74
2023-04-10T09:04:41.741Z,1013.73
2023-04-10T09:05:41.622Z,1013.72
2023-04-10T09:06:41.626Z,1013.74
2023-04-10T09:07:41.627Z,1013.71
2023-04-10T09:08:41.618Z,1013.67
2023-04-10T09:09:41.614Z,1013.70
2023-04-10T09:10:41.615Z,1013.65
2023-04-10T09:11:41.611Z,1013.61
2023-04-10T09:12:41.597Z,1013.64
2023-04-10T09:13:41.617Z,1013.61
2023-04-10T09:14:41.610Z,1013.63
2023-04-10T09:15:41.593Z,1013.64
2023-04-10T09:16:41.586Z,1013.63
2023-04-10T09:17:41.811Z,1013.65
2023-04-10T09:18:41.584Z,1013.67
2023-04-10T09:19:41.579Z,1013.66
2023-04-10T09:20:41.572Z,1013.71
2023-04-10T09:21:41.572Z,1013.68
2023-04-10T09:22:41.567Z,1013.68
2023-04-10T09:23:41.562Z,1013.63
2023-04-10T09:24:41.558Z,1013.70
2023-04-10T09:25:41.593Z,1013.65
2023-04-10T09:26:41.554Z,1013.63
2023-04-10T09:27:41.549Z,1013.66
2023-04-10T09:28:41.552Z,1013.63
2023-04-10T09:29:41.561Z,1013.67
2023-04-10T09:30:41.536Z,1013.75
2023-04-10T09:31:41.627Z,1013.67
2023-04-10T09:32:41.591Z,1013.75
2023-04-10T09:33:41.533Z,1013.53
2023-04-10T09:34:41.531Z,1013.68
2023-04-10T09:35:41.525Z,1013.73
2023-04-10T09:36:41.602Z,1013.67
2023-04-10T09:37:41.520Z,1013.72
2023-04-10T09:38:41.519Z,1013.72
2023-04-10T09:39:41.527Z,1013.69
2023-04-10T09:40:41.512Z,1013.68
2023-04-10T09:41:41.506Z,1013.66
2023-04-10T09:42:41.511Z,1013.67
2023-04-10T09:43:41.500Z,1013.67
2023-04-10T09:44:41.514Z,1013.60
2023-04-10T09:45:41.517Z,1013.56
2023-04-10T09:46:41.540Z,1013.51
2023-04-10T09:47:41.507Z,1013.49
2023-04-10T09:48:41.485Z,1013.38
2023-04-10T09:49:41.483Z,1013.41
2023-04-10T09:50:41.509Z,1013.41
2023-04-10T09:51:41.478Z,1013.42
2023-04-10T09:52:41.490Z,1013.39
2023-04-10T09:53:41.470Z,1013.35
2023-04-10T09:54:41.464Z,1013.35
2023-04-10T09:55:41.470Z,1013.34
2023-04-10T09:56:41.460Z,1013.36
2023-04-10T09:57:41.459Z,1013.34
2023-04-10T09:58:41.565Z,1013.37
2023-04-10T09:59:43.015Z,1013.35
2023-04-10T10:00:41.466Z,1013.32
2023-04-10T10:01:41.524Z,1013.34
2023-04-10T10:02:41.591Z,1013.30
2023-04-10T10:03:41.451Z,1013.24
2023-04-10T10:04:41.432Z,1013.26
2023-04-10T10:05:41.438Z,1013.26
2023-04-10T10:06:41.430Z,1013.27
2023-04-10T10:07:41.435Z,1013.27
2023-04-10T10:08:41.432Z,1013.24
2023-04-10T10:09:41.427Z,1013.26
2023-04-10T10:10:41.420Z,1013.14
2023-04-10T10:11:41.424Z,1013.17
2023-04-10T10:12:41.422Z,1013.15
2023-04-10T10:13:41.416Z,1013.17
2023-04-10T10:14:41.407Z,1013.15
2023-04-10T10:15:41.412Z,1013.19
2023-04-10T10:16:41.478Z,1013.06
2023-04-10T10:17:41.598Z,1013.07
2023-04-10T10:18:41.395Z,1013.11
2023-04-10T10:19:41.399Z,1013.05
2023-04-10T10:20:41.393Z,1013.01
2023-04-10T10:21:41.390Z,1012.95
2023-04-10T10:22:41.407Z,1012.95
2023-04-10T10:23:41.383Z,1012.98
2023-04-10T10:24:41.388Z,1013.02
2023-04-10T10:25:41.379Z,1012.98
2023-04-10T10:26:41.373Z,1012.86
2023-04-10T10:27:41.383Z,1012.89
2023-04-10T10:28:41.372Z,1012.94
2023-04-10T10:29:41.375Z,1012.84
2023-04-10T10:30:41.362Z,1012.78
2023-04-10T10:31:41.403Z,1012.83
2023-04-10T10:32:41.381Z,1012.78
2023-04-10T10:33:41.378Z,1012.79
2023-04-10T10:34:41.357Z,1012.75
2023-04-10T10:35:41.361Z,1012.76
2023-04-10T10:36:41.507Z,1012.68
2023-04-10T10:37:41.349Z,1012.69
2023-04-10T10:38:41.345Z,1012.64
2023-04-10T10:39:41.343Z,1012.62
2023-04-10T10:40:41.337Z,1012.61
2023-04-10T10:41:41.340Z,1012.52
2023-04-10T10:42:41.333Z,1012.54
2023-04-10T10:43:41.331Z,1012.49
2023-04-10T10:44:41.326Z,1012.48
2023-04-10T10:45:41.371Z,1012.41
2023-04-10T10:46:41.320Z,1012.57
2023-04-10T10:47:41.405Z,1012.32
2023-04-10T10:48:41.317Z,1012.31
2023-04-10T10:49:41.336Z,1012.34
2023-04-10T10:50:41.310Z,1012.31
2023-04-10T10:51:41.320Z,1012.31
2023-04-10T10:52:41.305Z,1012.28
2023-04-10T10:53:41.307Z,1012.25
2023-04-10T10:54:53.625Z,1012.30
2023-04-10T10:55:41.299Z,1012.19
2023-04-10T10:56:41.309Z,1012.17
2023-04-10T10:57:41.294Z,1012.19
2023-04-10T10:58:41.289Z,1012.12
2023-04-10T10:59:41.286Z,1012.02
2023-04-10T11:00:41.282Z,1012.03
2023-04-10T11:01:41.502Z,1011.94
2023-04-10T11:02:41.367Z,1012.01
2023-04-10T11:03:41.499Z,1011.99
2023-04-10T11:04:41.274Z,1012.03
2023-04-10T11:05:41.292Z,1011.89
2023-04-10T11:06:42.355Z,1011.82
2023-04-10T11:07:41.266Z,1011.92
2023-04-10T11:08:41.261Z,1011.93
2023-04-10T11:09:41.262Z,1011.82
2023-04-10T11:10:41.258Z,1011.82
2023-04-10T11:11:41.257Z,1011.77
2023-04-10T11:12:41.252Z,1011.80
2023-04-10T11:13:41.279Z,1011.82
2023-04-10T11:14:41.246Z,1011.75
2023-04-10T11:15:41.253Z,1011.72
2023-04-10T11:16:41.272Z,1011.76
2023-04-10T11:17:41.674Z,1011.68
2023-04-10T11:18:41.238Z,1011.59
2023-04-10T11:19:41.234Z,1011.64
2023-04-10T11:20:41.231Z,1011.62
2023-04-10T11:21:41.247Z,1011.65
2023-04-10T11:22:41.261Z,1011.67
2023-04-10T11:23:41.228Z,1011.64
2023-04-10T11:24:41.260Z,1011.68
2023-04-10T11:25:41.227Z,1011.68
2023-04-10T11:26:41.220Z,1011.64
2023-04-10T11:27:41.217Z,1011.58
2023-04-10T11:28:41.214Z,1011.53
2023-04-10T11:29:41.208Z,1011.60
2023-04-10T11:30:41.211Z,1011.56
2023-04-10T11:31:41.242Z,1011.56
2023-04-10T11:32:41.217Z,1011.59
2023-04-10T11:33:41.194Z,1011.53
2023-04-10T11:34:41.192Z,1011.52
2023-04-10T11:35:41.246Z,1011.49
2023-04-10T11:36:41.184Z,1011.45
2023-04-10T11:37:41.202Z,1011.41
2023-04-10T11:38:41.179Z,1011.43
2023-04-10T11:39:41.184Z,1011.41
2023-04-10T11:40:41.186Z,1011.44
2023-04-10T11:41:41.173Z,1011.45
2023-04-10T11:42:41.168Z,1011.40
2023-04-10T11:43:41.167Z,1011.30
2023-04-10T11:44:41.168Z,1011.40
2023-04-10T11:45:41.195Z,1011.36
2023-04-10T11:46:41.168Z,1011.32
2023-04-10T11:47:41.177Z,1011.31
2023-04-10T11:48:41.162Z,1011.28
2023-04-10T11:49:41.160Z,1011.26
2023-04-10T11:50:41.158Z,1011.22
2023-04-10T11:51:41.149Z,1011.29
2023-04-10T11:52:41.147Z,1011.19
2023-04-10T11:53:41.159Z,1011.21
2023-04-10T11:54:41.140Z,1011.22
2023-04-10T11:55:41.136Z,1011.18
2023-04-10T11:56:41.133Z,1011.14
2023-04-10T11:57:41.130Z,1011.14
2023-04-10T11:58:41.129Z,1011.08
2023-04-10T11:59:41.132Z,1011.13
2023-04-10T12:00:41.128Z,1011.07
2023-04-10T12:01:43.101Z,1011.07
2023-04-10T12:02:41.246Z,1011.11
2023-04-10T12:03:41.278Z,1011.09
2023-04-10T12:04:41.259Z,1011.09
2023-04-10T12:05:41.117Z,1011.13